createdAt,value
2019-06-15T00:01:24.203Z,97.65
2019-06-15T00:02:17.799Z,97.85
2019-06-15T00:03:17.789Z,97.85
2019-06-15T00:04:21.444Z,97.85
2019-06-15T00:05:22.170Z,97.75
2019-06-15T00:06:25.842Z,97.55
2019-06-15T00:07:55.505Z,97.55
2019-06-15T00:08:18.734Z,97.96
2019-06-15T00:13:22.974Z,97.96
2019-06-15T00:14:25.687Z,97.65
2019-06-15T00:15:28.454Z,97.45
2019-06-15T00:18:31.426Z,97.25
2019-06-15T00:20:02.160Z,97.55
2019-06-15T00:21:04.815Z,97.34
2019-06-15T00:22:56.951Z,97.14
2019-06-15T00:24:34.624Z,97.05
2019-06-15T00:24:50.662Z,97.34
2019-06-15T00:26:22.032Z,96.94
2019-06-15T00:26:50.663Z,97.25
2019-06-15T00:27:57.526Z,97.34
2019-06-15T00:28:55.192Z,97.25
2019-06-15T00:29:56.034Z,97.34
2019-06-15T00:34:12.575Z,97.39
2019-06-15T00:35:03.744Z,98.10
2019-06-15T00:38:48.748Z,98.35
2019-06-15T00:39:40.968Z,97.79
2019-06-15T00:44:23.104Z,98.34
2019-06-15T00:45:47.407Z,98.24
2019-06-15T00:46:47.236Z,98.28
2019-06-15T00:48:10.886Z,97.83
2019-06-15T00:48:28.788Z,97.26
2019-06-15T00:49:23.063Z,97.36
2019-06-15T00:50:24.178Z,98.58
2019-06-15T00:51:23.239Z,98.58
2019-06-15T00:52:49.580Z,99.13
2019-06-15T00:54:02.413Z,99.13
2019-06-15T00:54:22.999Z,99.54
2019-06-15T00:55:29.868Z,99.99
2019-06-15T00:57:07.634Z,99.99
2019-06-15T00:58:01.261Z,99.99
2019-06-15T00:59:07.219Z,99.99
2019-06-15T00:59:23.957Z,99.49
2019-06-15T01:02:54.616Z,99.94
2019-06-15T01:03:50.779Z,99.99
2019-06-15T01:05:35.044Z,99.78
2019-06-15T01:06:10.222Z,99.88
2019-06-15T01:07:05.987Z,99.42
2019-06-15T01:09:07.612Z,99.99
2019-06-15T01:10:35.196Z,99.99
2019-06-15T01:12:33.487Z,99.99
2019-06-15T01:14:05.651Z,99.99
2019-06-15T01:14:35.756Z,99.99
2019-06-15T01:15:26.869Z,99.99
2019-06-15T01:16:28.560Z,99.99
2019-06-15T01:20:42.747Z,99.99
2019-06-15T01:21:56.995Z,99.99
2019-06-15T01:25:34.091Z,99.99
2019-06-15T01:26:50.696Z,99.99
2019-06-15T01:30:36.146Z,99.99
2019-06-15T01:31:03.155Z,99.99
2019-06-15T01:33:33.265Z,99.99
2019-06-15T01:35:14.199Z,99.99
2019-06-15T01:39:42.165Z,99.99
2019-06-15T01:40:47.016Z,99.52
2019-06-15T01:41:42.111Z,98.56
2019-06-15T01:42:42.107Z,97.45
2019-06-15T01:43:50.067Z,96.69
2019-06-15T01:45:02.422Z,95.98
2019-06-15T01:45:42.061Z,96.80
2019-06-15T01:46:42.049Z,96.64
2019-06-15T01:47:42.050Z,96.64
2019-06-15T01:48:42.025Z,96.34
2019-06-15T01:49:42.015Z,95.93
2019-06-15T01:50:42.005Z,95.48
2019-06-15T01:51:41.994Z,95.68
2019-06-15T01:52:41.991Z,95.48
2019-06-15T01:53:41.972Z,95.28
2019-06-15T01:54:42.017Z,95.18
2019-06-15T01:55:41.955Z,95.58
2019-06-15T01:56:41.937Z,95.07
2019-06-15T01:57:41.938Z,95.18
2019-06-15T01:58:41.986Z,93.96
2019-06-15T01:59:41.910Z,93.01
2019-06-15T02:00:41.898Z,92.97
2019-06-15T02:01:41.889Z,92.06
2019-06-15T02:02:41.932Z,91.51
2019-06-15T02:03:41.861Z,92.02
2019-06-15T02:04:41.852Z,90.61
2019-06-15T02:05:41.847Z,90.70
2019-06-15T02:06:41.832Z,90.36
2019-06-15T02:07:41.828Z,90.36
2019-06-15T02:08:41.866Z,90.56
2019-06-15T02:09:41.795Z,90.26
2019-06-15T02:10:41.783Z,90.06
2019-06-15T02:11:41.774Z,90.36
2019-06-15T02:12:42.049Z,89.86
2019-06-15T02:13:41.750Z,89.75
2019-06-15T02:14:41.793Z,89.86
2019-06-15T02:15:41.729Z,88.40
2019-06-15T02:16:41.723Z,89.31
2019-06-15T02:17:41.710Z,88.46
2019-06-15T02:18:41.713Z,88.86
2019-06-15T02:19:41.690Z,88.86
2019-06-15T02:20:41.733Z,88.76
2019-06-15T02:21:41.677Z,88.81
2019-06-15T02:22:41.856Z,88.36
2019-06-15T02:23:41.652Z,88.86
2019-06-15T02:24:41.672Z,88.36
2019-06-15T02:25:41.628Z,88.46
2019-06-15T02:26:41.616Z,86.95
2019-06-15T02:27:41.690Z,87.85
2019-06-15T02:28:41.620Z,87.65
2019-06-15T02:29:41.579Z,87.65
2019-06-15T02:30:41.584Z,87.35
2019-06-15T02:31:41.561Z,87.15
2019-06-15T02:32:41.599Z,86.95
2019-06-15T02:33:41.549Z,87.15
2019-06-15T02:34:41.526Z,87.62
2019-06-15T02:35:41.516Z,87.21
2019-06-15T02:36:41.505Z,86.51
2019-06-15T02:37:41.532Z,86.81
2019-06-15T02:38:41.493Z,86.51
2019-06-15T02:39:41.513Z,87.21
2019-06-15T02:40:41.463Z,86.61
2019-06-15T02:41:41.454Z,86.41
2019-06-15T02:42:41.441Z,87.11
2019-06-15T02:43:41.443Z,86.85
2019-06-15T02:44:41.418Z,86.85
2019-06-15T02:45:41.430Z,87.15
2019-06-15T02:46:41.399Z,87.11
2019-06-15T02:47:41.389Z,86.55
2019-06-15T02:48:41.388Z,87.15
2019-06-15T02:49:41.365Z,86.85
2019-06-15T02:50:41.371Z,87.35
2019-06-15T02:51:41.346Z,87.15
2019-06-15T02:52:41.400Z,87.05
2019-06-15T02:53:41.336Z,86.85
2019-06-15T02:54:41.317Z,86.85
2019-06-15T02:55:50.246Z,87.05
2019-06-15T02:56:42.288Z,87.15
2019-06-15T02:57:41.276Z,86.65
2019-06-15T02:58:41.317Z,86.24
2019-06-15T02:59:41.264Z,86.04
2019-06-15T03:00:41.244Z,87.96
2019-06-15T03:01:41.234Z,87.85
2019-06-15T03:02:41.223Z,87.90
2019-06-15T03:03:41.223Z,87.76
2019-06-15T03:04:41.203Z,87.49
2019-06-15T03:05:41.228Z,88.70
2019-06-15T03:06:41.180Z,87.90
2019-06-15T03:07:41.175Z,88.85
2019-06-15T03:08:41.168Z,90.06
2019-06-15T03:09:41.150Z,90.36
2019-06-15T03:10:41.139Z,89.45
2019-06-15T03:11:41.169Z,90.20
2019-06-15T03:12:41.120Z,90.70
2019-06-15T03:13:41.116Z,90.30
2019-06-15T03:14:41.095Z,90.85
2019-06-15T03:15:41.090Z,90.55
2019-06-15T03:16:41.074Z,90.50
2019-06-15T03:17:41.109Z,90.49
2019-06-15T03:18:41.067Z,90.85
2019-06-15T03:19:41.045Z,91.09
2019-06-15T03:20:41.030Z,91.80
2019-06-15T03:21:41.034Z,91.39
2019-06-15T03:22:41.014Z,91.19
2019-06-15T03:23:41.009Z,90.99
2019-06-15T03:24:41.039Z,91.39
2019-06-15T03:25:40.980Z,92.30
2019-06-15T03:26:40.969Z,91.80
2019-06-15T03:27:40.966Z,91.39
2019-06-15T03:28:40.963Z,91.80
2019-06-15T03:29:40.935Z,91.80
2019-06-15T03:30:40.987Z,92.10
2019-06-15T03:31:40.919Z,92.30
2019-06-15T03:32:40.908Z,92.50
2019-06-15T03:33:40.894Z,92.30
2019-06-15T03:34:40.891Z,91.90
2019-06-15T03:35:40.879Z,92.50
2019-06-15T03:36:40.910Z,92.21
2019-06-15T03:37:40.852Z,92.21
2019-06-15T03:38:40.850Z,92.71
2019-06-15T03:39:40.843Z,93.72
2019-06-15T03:40:40.818Z,92.71
2019-06-15T03:41:40.806Z,93.12
2019-06-15T03:42:40.835Z,92.61
2019-06-15T03:43:40.785Z,93.07
2019-06-15T03:44:40.790Z,92.71
2019-06-15T03:45:40.763Z,92.30
2019-06-15T03:46:40.756Z,92.30
2019-06-15T03:47:40.749Z,92.71
2019-06-15T03:48:40.785Z,93.82
2019-06-15T03:49:40.740Z,93.32
2019-06-15T03:50:40.712Z,93.21
2019-06-15T03:51:40.698Z,92.91
2019-06-15T03:52:40.690Z,91.90
2019-06-15T03:53:40.685Z,92.30
2019-06-15T03:54:40.761Z,92.46
2019-06-15T03:55:40.655Z,92.30
2019-06-15T03:56:40.661Z,92.26
2019-06-15T03:57:40.635Z,92.66
2019-06-15T03:58:40.631Z,91.66
2019-06-15T03:59:40.624Z,91.46
2019-06-15T04:00:40.637Z,91.35
2019-06-15T04:01:40.595Z,91.66
2019-06-15T04:02:40.589Z,92.36
2019-06-15T04:03:40.583Z,91.76
2019-06-15T04:04:40.573Z,91.66
2019-06-15T04:05:40.558Z,91.05
2019-06-15T04:06:40.574Z,91.55
2019-06-15T04:07:40.530Z,90.70
2019-06-15T04:08:40.523Z,90.41
2019-06-15T04:09:40.519Z,90.61
2019-06-15T04:10:40.498Z,90.81
2019-06-15T04:11:40.488Z,91.21
2019-06-15T04:12:40.510Z,90.00
2019-06-15T04:13:40.463Z,89.86
2019-06-15T04:14:40.465Z,90.06
2019-06-15T04:15:40.445Z,88.85
2019-06-15T04:16:40.433Z,88.34
2019-06-15T04:17:40.422Z,88.70
2019-06-15T04:18:40.475Z,88.30
2019-06-15T04:19:40.414Z,87.70
2019-06-15T04:20:40.391Z,88.70
2019-06-15T04:21:40.379Z,89.11
2019-06-15T04:22:40.367Z,88.50
2019-06-15T04:23:40.363Z,88.90
2019-06-15T04:24:40.405Z,88.40
2019-06-15T04:25:40.346Z,88.81
2019-06-15T04:26:40.331Z,89.31
2019-06-15T04:27:40.330Z,89.65
2019-06-15T04:28:40.308Z,90.06
2019-06-15T04:29:40.384Z,89.65
2019-06-15T04:30:40.285Z,88.85
2019-06-15T04:31:40.281Z,89.75
2019-06-15T04:32:40.290Z,89.95
2019-06-15T04:33:40.251Z,89.45
2019-06-15T04:34:40.257Z,90.06
2019-06-15T04:35:40.236Z,90.46
2019-06-15T04:36:40.226Z,89.45
2019-06-15T04:37:40.209Z,90.06
2019-06-15T04:38:40.265Z,90.36
2019-06-15T04:39:40.196Z,89.95
2019-06-15T04:40:40.178Z,89.25
2019-06-15T04:41:40.168Z,90.06
2019-06-15T04:42:40.172Z,89.86
2019-06-15T04:43:40.150Z,88.85
2019-06-15T04:44:40.202Z,88.95
2019-06-15T04:45:40.132Z,88.65
2019-06-15T04:46:40.113Z,87.60
2019-06-15T04:47:40.106Z,88.30
2019-06-15T04:48:40.100Z,88.20
2019-06-15T04:49:40.091Z,87.90
2019-06-15T04:50:40.078Z,87.60
2019-06-15T04:51:40.119Z,88.76
2019-06-15T04:52:40.058Z,88.86
2019-06-15T04:53:40.046Z,87.15
2019-06-15T04:54:40.086Z,86.75
2019-06-15T04:55:40.018Z,86.21
2019-06-15T04:56:50.508Z,86.51
2019-06-15T04:57:40.991Z,85.46
2019-06-15T04:58:39.991Z,85.02
2019-06-15T04:59:40.014Z,85.02
2019-06-15T05:00:39.978Z,84.31
2019-06-15T05:01:39.949Z,84.77
2019-06-15T05:02:39.940Z,84.23
2019-06-15T05:03:39.929Z,84.37
2019-06-15T05:04:39.913Z,84.67
2019-06-15T05:05:39.955Z,86.18
2019-06-15T05:06:39.892Z,85.17
2019-06-15T05:07:39.880Z,85.88
2019-06-15T05:08:39.870Z,85.48
2019-06-15T05:09:39.859Z,85.48
2019-06-15T05:10:39.858Z,84.94
2019-06-15T05:11:39.914Z,85.74
2019-06-15T05:12:39.834Z,85.98
2019-06-15T05:13:39.934Z,85.17
2019-06-15T05:14:39.809Z,84.37
2019-06-15T05:15:39.812Z,85.28
2019-06-15T05:16:39.783Z,84.77
2019-06-15T05:17:39.810Z,86.38
2019-06-15T05:18:39.765Z,88.19
2019-06-15T05:19:39.749Z,86.18
2019-06-15T05:20:39.750Z,85.08
2019-06-15T05:21:39.735Z,86.44
2019-06-15T05:22:39.720Z,86.74
2019-06-15T05:23:39.719Z,87.04
2019-06-15T05:24:39.699Z,86.90
2019-06-15T05:25:39.762Z,86.00
2019-06-15T05:26:39.682Z,85.30
2019-06-15T05:27:39.685Z,84.95
2019-06-15T05:28:39.652Z,85.56
2019-06-15T05:29:39.640Z,83.85
2019-06-15T05:30:39.649Z,83.89
2019-06-15T05:31:39.673Z,86.06
2019-06-15T05:32:39.613Z,86.16
2019-06-15T05:33:39.603Z,86.80
2019-06-15T05:34:39.597Z,84.19
2019-06-15T05:35:39.592Z,87.04
2019-06-15T05:36:39.565Z,87.19
2019-06-15T05:37:39.554Z,88.55
2019-06-15T05:38:39.580Z,87.49
2019-06-15T05:39:39.539Z,89.70
2019-06-15T05:40:39.564Z,88.39
2019-06-15T05:41:39.515Z,89.60
2019-06-15T05:42:39.506Z,89.30
2019-06-15T05:43:39.494Z,89.64
2019-06-15T05:44:39.524Z,90.29
2019-06-15T05:45:39.502Z,89.73
2019-06-15T05:46:39.467Z,90.44
2019-06-15T05:47:39.454Z,90.23
2019-06-15T05:48:39.436Z,90.33
2019-06-15T05:49:39.426Z,89.73
2019-06-15T05:50:39.434Z,90.44
2019-06-15T05:51:39.404Z,89.18
2019-06-15T05:52:39.446Z,87.79
2019-06-15T05:53:39.395Z,87.93
2019-06-15T05:54:39.372Z,88.64
2019-06-15T05:55:39.373Z,88.09
2019-06-15T05:56:48.446Z,86.10
2019-06-15T05:57:39.340Z,82.82
2019-06-15T05:58:39.329Z,80.21
2019-06-15T05:59:39.315Z,79.17
2019-06-15T06:00:39.324Z,79.41
2019-06-15T06:01:39.293Z,76.64
2019-06-15T06:02:39.286Z,78.54
2019-06-15T06:03:39.281Z,78.54
2019-06-15T06:04:39.261Z,74.93
2019-06-15T06:05:39.262Z,73.25
2019-06-15T06:06:39.240Z,71.99
2019-06-15T06:07:39.229Z,72.42
2019-06-15T06:08:39.224Z,72.32
2019-06-15T06:09:39.207Z,71.76
2019-06-15T06:10:39.206Z,71.86
2019-06-15T06:11:39.185Z,75.13
2019-06-15T06:12:39.174Z,74.29
2019-06-15T06:13:39.162Z,71.66
2019-06-15T06:14:39.178Z,72.86
2019-06-15T06:15:39.152Z,72.49
2019-06-15T06:16:39.131Z,71.76
2019-06-15T06:17:40.503Z,73.25
2019-06-15T06:18:39.110Z,73.12
2019-06-15T06:19:39.096Z,71.75
2019-06-15T06:20:39.107Z,69.66
2019-06-15T06:21:39.076Z,69.62
2019-06-15T06:22:39.067Z,68.96
2019-06-15T06:23:39.053Z,67.93
2019-06-15T06:24:39.043Z,68.30
2019-06-15T06:25:39.040Z,68.86
2019-06-15T06:26:39.028Z,72.42
2019-06-15T06:27:39.010Z,73.33
2019-06-15T06:28:38.999Z,74.80
2019-06-15T06:29:38.988Z,75.90
2019-06-15T06:30:38.988Z,76.14
2019-06-15T06:31:38.968Z,77.08
2019-06-15T06:32:38.967Z,74.50
2019-06-15T06:33:38.950Z,75.50
2019-06-15T06:34:38.936Z,74.06
2019-06-15T06:35:38.951Z,74.03
2019-06-15T06:36:38.915Z,74.46
2019-06-15T06:37:38.905Z,74.70
2019-06-15T06:38:38.898Z,75.10
2019-06-15T06:39:38.880Z,74.50
2019-06-15T06:40:38.868Z,75.13
2019-06-15T06:41:38.868Z,74.53
2019-06-15T06:42:38.845Z,74.68
2019-06-15T06:43:38.835Z,70.62
2019-06-15T06:44:38.840Z,67.66
2019-06-15T06:45:38.812Z,69.06
2019-06-15T06:46:38.812Z,67.90
2019-06-15T06:47:38.790Z,66.08
2019-06-15T06:48:38.783Z,66.84
2019-06-15T06:49:38.768Z,66.83
2019-06-15T06:50:41.257Z,67.27
2019-06-15T06:51:38.765Z,67.70
2019-06-15T06:52:38.736Z,68.56
2019-06-15T06:53:38.727Z,68.53
2019-06-15T06:54:38.718Z,69.66
2019-06-15T06:55:38.704Z,72.86
2019-06-15T06:56:38.711Z,71.79
2019-06-15T06:57:51.325Z,73.76
2019-06-15T06:58:39.671Z,74.54
2019-06-15T06:59:38.661Z,76.07
2019-06-15T07:00:38.649Z,75.81
2019-06-15T07:01:38.648Z,76.54
2019-06-15T07:02:38.637Z,77.11
2019-06-15T07:03:38.616Z,77.21
2019-06-15T07:04:38.606Z,78.25
2019-06-15T07:05:38.594Z,77.91
2019-06-15T07:06:38.593Z,77.81
2019-06-15T07:07:38.573Z,77.51
2019-06-15T07:08:38.573Z,76.71
2019-06-15T07:09:38.552Z,77.65
2019-06-15T07:10:38.544Z,78.11
2019-06-15T07:11:38.583Z,78.52
2019-06-15T07:12:38.525Z,77.78
2019-06-15T07:13:38.512Z,75.67
2019-06-15T07:14:38.507Z,75.47
2019-06-15T07:15:38.489Z,77.58
2019-06-15T07:16:38.488Z,78.58
2019-06-15T07:17:38.467Z,76.98
2019-06-15T07:18:38.455Z,75.40
2019-06-15T07:19:38.446Z,76.40
2019-06-15T07:20:38.444Z,76.04
2019-06-15T07:21:38.431Z,75.93
2019-06-15T07:22:38.412Z,74.27
2019-06-15T07:23:38.402Z,75.51
2019-06-15T07:24:38.411Z,75.67
2019-06-15T07:25:38.379Z,75.81
2019-06-15T07:26:38.697Z,75.67
2019-06-15T07:27:38.357Z,75.17
2019-06-15T07:28:38.348Z,76.64
2019-06-15T07:29:38.359Z,77.14
2019-06-15T07:30:38.324Z,77.91
2019-06-15T07:31:38.319Z,73.89
2019-06-15T07:32:38.340Z,69.13
2019-06-15T07:33:38.294Z,69.89
2019-06-15T07:34:38.284Z,70.72
2019-06-15T07:35:38.268Z,70.72
2019-06-15T07:36:38.258Z,71.66
2019-06-15T07:37:38.261Z,70.26
2019-06-15T07:38:38.283Z,70.32
2019-06-15T07:39:38.225Z,69.62
2019-06-15T07:40:38.214Z,69.69
2019-06-15T07:41:38.203Z,68.86
2019-06-15T07:42:39.425Z,70.03
2019-06-15T07:43:38.182Z,66.47
2019-06-15T07:44:38.228Z,67.20
2019-06-15T07:45:38.186Z,68.70
2019-06-15T07:46:38.154Z,66.91
2019-06-15T07:47:38.161Z,65.61
2019-06-15T07:48:38.133Z,64.87
2019-06-15T07:49:38.118Z,68.13
2019-06-15T07:50:38.161Z,67.86
2019-06-15T07:51:38.097Z,69.16
2019-06-15T07:52:38.103Z,69.09
2019-06-15T07:53:38.078Z,67.90
2019-06-15T07:54:38.070Z,67.86
2019-06-15T07:55:38.054Z,65.56
2019-06-15T07:56:38.065Z,70.03
2019-06-15T07:57:38.041Z,66.36
2019-06-15T07:58:38.021Z,67.93
2019-06-15T07:59:38.011Z,65.87
2019-06-15T08:00:38.002Z,68.10
2019-06-15T08:01:37.990Z,67.23
2019-06-15T08:02:38.016Z,68.86
2019-06-15T08:03:38.004Z,67.96
2019-06-15T08:04:37.957Z,71.46
2019-06-15T08:05:37.947Z,70.29
2019-06-15T08:06:37.938Z,71.56
2019-06-15T08:07:37.939Z,71.86
2019-06-15T08:08:37.942Z,71.76
2019-06-15T08:09:37.904Z,68.52
2019-06-15T08:10:37.899Z,66.70
2019-06-15T08:11:37.886Z,68.36
2019-06-15T08:12:37.880Z,66.80
2019-06-15T08:13:37.861Z,65.24
2019-06-15T08:14:37.874Z,63.52
2019-06-15T08:15:37.849Z,67.80
2019-06-15T08:16:37.834Z,65.55
2019-06-15T08:17:37.831Z,65.45
2019-06-15T08:18:37.806Z,61.38
2019-06-15T08:19:37.798Z,63.21
2019-06-15T08:20:37.813Z,58.94
2019-06-15T08:21:37.783Z,62.48
2019-06-15T08:22:37.773Z,67.31
2019-06-15T08:23:37.751Z,59.52
2019-06-15T08:24:37.747Z,62.04
2019-06-15T08:25:37.730Z,58.37
2019-06-15T08:26:37.746Z,58.16
2019-06-15T08:27:37.720Z,61.12
2019-06-15T08:28:40.617Z,61.24
2019-06-15T08:29:37.699Z,62.79
2019-06-15T08:30:37.676Z,66.27
2019-06-15T08:31:37.668Z,66.53
2019-06-15T08:32:37.683Z,68.33
2019-06-15T08:33:37.646Z,68.10
2019-06-15T08:34:37.632Z,67.07
2019-06-15T08:35:37.623Z,64.36
2019-06-15T08:36:37.612Z,65.18
2019-06-15T08:37:37.609Z,62.53
2019-06-15T08:38:37.616Z,63.07
2019-06-15T08:39:37.581Z,62.83
2019-06-15T08:40:37.568Z,64.06
2019-06-15T08:41:37.557Z,63.32
2019-06-15T08:42:37.558Z,64.37
2019-06-15T08:43:37.535Z,66.83
2019-06-15T08:44:37.540Z,68.83
2019-06-15T08:45:37.514Z,69.89
2019-06-15T08:46:37.505Z,68.10
2019-06-15T08:47:37.523Z,68.60
2019-06-15T08:48:37.482Z,67.00
2019-06-15T08:49:37.472Z,67.16
2019-06-15T08:50:37.484Z,68.59
2019-06-15T08:51:37.451Z,68.43
2019-06-15T08:52:37.441Z,71.76
2019-06-15T08:53:37.438Z,72.59
2019-06-15T08:54:37.421Z,70.43
2019-06-15T08:55:37.409Z,70.56
2019-06-15T08:56:37.424Z,71.19
2019-06-15T08:57:40.316Z,72.66
2019-06-15T08:58:37.388Z,73.86
2019-06-15T08:59:37.364Z,72.03
2019-06-15T09:00:37.376Z,72.59
2019-06-15T09:01:37.387Z,72.16
2019-06-15T09:02:37.332Z,71.76
2019-06-15T09:03:37.331Z,70.99
2019-06-15T09:04:37.359Z,71.49
2019-06-15T09:05:37.298Z,71.73
2019-06-15T09:06:37.289Z,70.66
2019-06-15T09:07:37.304Z,71.39
2019-06-15T09:08:37.276Z,73.39
2019-06-15T09:09:37.257Z,74.10
2019-06-15T09:10:37.247Z,73.10
2019-06-15T09:11:37.235Z,73.66
2019-06-15T09:12:37.227Z,71.76
2019-06-15T09:13:37.268Z,73.86
2019-06-15T09:14:37.203Z,71.96
2019-06-15T09:15:37.190Z,71.83
2019-06-15T09:16:37.182Z,71.62
2019-06-15T09:17:37.169Z,70.43
2019-06-15T09:18:37.167Z,71.83
2019-06-15T09:19:37.178Z,73.29
2019-06-15T09:20:37.139Z,71.76
2019-06-15T09:21:37.127Z,68.63
2019-06-15T09:22:37.114Z,69.76
2019-06-15T09:23:37.114Z,67.40
2019-06-15T09:24:37.096Z,68.19
2019-06-15T09:25:37.104Z,67.83
2019-06-15T09:26:37.072Z,71.86
2019-06-15T09:27:37.062Z,68.36
2019-06-15T09:28:37.059Z,68.86
2019-06-15T09:29:37.039Z,69.79
2019-06-15T09:30:37.029Z,69.20
2019-06-15T09:31:37.044Z,69.13
2019-06-15T09:32:37.034Z,71.33
2019-06-15T09:33:37.007Z,69.59
2019-06-15T09:34:36.984Z,70.62
2019-06-15T09:35:36.975Z,71.92
2019-06-15T09:36:36.962Z,70.56
2019-06-15T09:37:36.976Z,73.76
2019-06-15T09:38:36.968Z,72.96
2019-06-15T09:39:36.935Z,74.37
2019-06-15T09:40:36.920Z,75.40
2019-06-15T09:41:36.951Z,73.60
2019-06-15T09:42:36.903Z,73.53
2019-06-15T09:43:36.930Z,75.77
2019-06-15T09:44:36.888Z,75.31
2019-06-15T09:45:36.867Z,78.81
2019-06-15T09:46:36.855Z,78.11
2019-06-15T09:47:36.844Z,78.02
2019-06-15T09:48:36.834Z,77.87
2019-06-15T09:49:36.862Z,78.38
2019-06-15T09:50:36.812Z,76.71
2019-06-15T09:51:36.805Z,77.72
2019-06-15T09:52:36.793Z,77.01
2019-06-15T09:53:36.783Z,78.11
2019-06-15T09:54:36.780Z,77.67
2019-06-15T09:55:36.784Z,77.11
2019-06-15T09:56:36.749Z,75.91
2019-06-15T09:57:36.739Z,77.85
2019-06-15T09:58:36.730Z,76.95
2019-06-15T09:59:38.478Z,76.54
2019-06-15T10:00:36.708Z,76.18
2019-06-15T10:01:36.720Z,76.58
2019-06-15T10:02:36.685Z,77.22
2019-06-15T10:03:36.673Z,78.09
2019-06-15T10:04:36.687Z,77.28
2019-06-15T10:05:36.651Z,78.19
2019-06-15T10:06:36.640Z,76.98
2019-06-15T10:07:36.678Z,77.39
2019-06-15T10:08:36.621Z,76.38
2019-06-15T10:09:36.626Z,77.25
2019-06-15T10:10:36.598Z,77.05
2019-06-15T10:11:36.585Z,75.74
2019-06-15T10:12:36.574Z,75.54
2019-06-15T10:13:36.591Z,74.60
2019-06-15T10:14:36.563Z,74.60
2019-06-15T10:15:36.543Z,74.77
2019-06-15T10:16:36.537Z,73.43
2019-06-15T10:17:36.523Z,73.30
2019-06-15T10:18:38.796Z,73.90
2019-06-15T10:19:36.545Z,75.87
2019-06-15T10:20:36.491Z,71.66
2019-06-15T10:21:36.478Z,71.96
2019-06-15T10:22:36.521Z,72.16
2019-06-15T10:23:36.457Z,71.80
2019-06-15T10:24:36.454Z,72.09
2019-06-15T10:25:36.467Z,72.80
2019-06-15T10:26:36.435Z,73.90
2019-06-15T10:27:36.412Z,73.46
2019-06-15T10:28:36.408Z,73.83
2019-06-15T10:29:42.023Z,72.03
2019-06-15T10:30:37.400Z,71.62
2019-06-15T10:31:36.368Z,71.92
2019-06-15T10:32:36.358Z,71.29
2019-06-15T10:33:36.352Z,70.46
2019-06-15T10:34:36.359Z,69.89
2019-06-15T10:35:36.326Z,70.89
2019-06-15T10:36:36.340Z,70.19
2019-06-15T10:37:36.314Z,70.39
2019-06-15T10:38:36.293Z,70.43
2019-06-15T10:39:36.293Z,70.56
2019-06-15T10:40:36.271Z,72.03
2019-06-15T10:41:36.262Z,71.39
2019-06-15T10:42:36.273Z,70.32
2019-06-15T10:43:36.239Z,70.62
2019-06-15T10:44:36.238Z,71.69
2019-06-15T10:45:36.225Z,72.09
2019-06-15T10:46:36.210Z,69.76
2019-06-15T10:47:36.201Z,70.49
2019-06-15T10:48:36.207Z,67.96
2019-06-15T10:49:36.186Z,65.91
2019-06-15T10:50:36.163Z,64.22
2019-06-15T10:51:36.153Z,62.50
2019-06-15T10:52:36.145Z,61.65
2019-06-15T10:53:36.133Z,59.23
2019-06-15T10:54:36.183Z,58.78
2019-06-15T10:55:36.112Z,58.69
2019-06-15T10:56:36.099Z,59.17
2019-06-15T10:57:36.091Z,60.35
2019-06-15T10:58:36.080Z,62.72
2019-06-15T10:59:36.333Z,63.25
2019-06-15T11:00:36.072Z,63.68
2019-06-15T11:01:36.053Z,65.08
2019-06-15T11:02:36.038Z,66.50
2019-06-15T11:03:36.025Z,65.50
2019-06-15T11:04:36.017Z,66.30
2019-06-15T11:05:36.016Z,67.70
2019-06-15T11:06:36.003Z,68.86
2019-06-15T11:07:35.984Z,67.83
2019-06-15T11:08:35.972Z,65.21
2019-06-15T11:09:35.966Z,63.12
2019-06-15T11:10:36.035Z,65.24
2019-06-15T11:11:35.945Z,66.94
2019-06-15T11:12:45.726Z,65.24
2019-06-15T11:13:36.920Z,63.32
2019-06-15T11:14:35.914Z,65.05
2019-06-15T11:15:35.907Z,61.24
2019-06-15T11:16:35.890Z,63.53
2019-06-15T11:17:35.883Z,60.98
2019-06-15T11:18:35.900Z,60.10
2019-06-15T11:19:35.856Z,59.12
2019-06-15T11:20:35.853Z,60.85
2019-06-15T11:21:35.839Z,58.28
2019-06-15T11:22:35.826Z,59.63
2019-06-15T11:23:35.814Z,56.51
2019-06-15T11:24:35.824Z,53.67
2019-06-15T11:25:35.803Z,52.87
2019-06-15T11:26:35.787Z,53.30
2019-06-15T11:27:35.774Z,53.85
2019-06-15T11:28:35.764Z,57.89
2019-06-15T11:29:35.755Z,56.81
2019-06-15T11:30:35.772Z,57.35
2019-06-15T11:31:35.731Z,55.51
2019-06-15T11:32:35.723Z,57.31
2019-06-15T11:33:35.717Z,61.21
2019-06-15T11:34:35.702Z,60.11
2019-06-15T11:35:35.708Z,61.27
2019-06-15T11:36:35.697Z,55.28
2019-06-15T11:37:35.672Z,57.13
2019-06-15T11:38:35.662Z,56.88
2019-06-15T11:39:35.651Z,55.96
2019-06-15T11:40:35.650Z,55.58
2019-06-15T11:41:35.637Z,53.64
2019-06-15T11:42:35.632Z,55.00
2019-06-15T11:43:35.610Z,55.72
2019-06-15T11:44:35.600Z,60.79
2019-06-15T11:45:35.604Z,57.46
2019-06-15T11:46:35.582Z,58.97
2019-06-15T11:47:35.571Z,58.87
2019-06-15T11:48:35.599Z,59.56
2019-06-15T11:49:35.549Z,58.54
2019-06-15T11:50:35.548Z,58.12
2019-06-15T11:51:35.529Z,57.03
2019-06-15T11:52:35.519Z,57.15
2019-06-15T11:53:35.508Z,52.56
2019-06-15T11:54:35.518Z,51.94
2019-06-15T11:55:39.572Z,54.64
2019-06-15T11:56:35.479Z,53.86
2019-06-15T11:57:35.469Z,55.70
2019-06-15T11:58:35.459Z,52.97
2019-06-15T11:59:35.449Z,51.79
2019-06-15T12:00:35.470Z,51.50
2019-06-15T12:01:35.430Z,49.33
2019-06-15T12:02:35.419Z,51.79
2019-06-15T12:03:35.410Z,51.10
2019-06-15T12:04:57.499Z,50.88
2019-06-15T12:05:36.403Z,51.64
2019-06-15T12:06:35.410Z,49.80
2019-06-15T12:07:35.381Z,50.26
2019-06-15T12:08:35.375Z,50.09
2019-06-15T12:09:35.356Z,50.88
2019-06-15T12:10:35.384Z,54.79
2019-06-15T12:11:35.332Z,54.44
2019-06-15T12:12:35.324Z,51.67
2019-06-15T12:13:35.314Z,49.65
2019-06-15T12:14:35.306Z,52.01
2019-06-15T12:15:35.305Z,53.00
2019-06-15T12:16:35.294Z,51.50
2019-06-15T12:17:35.282Z,49.75
2019-06-15T12:18:35.268Z,51.69
2019-06-15T12:19:35.254Z,50.07
2019-06-15T12:20:35.246Z,51.00
2019-06-15T12:21:35.261Z,53.87
2019-06-15T12:22:35.225Z,53.60
2019-06-15T12:23:35.214Z,58.34
2019-06-15T12:24:35.205Z,56.09
2019-06-15T12:25:35.205Z,53.44
2019-06-15T12:26:35.201Z,52.78
2019-06-15T12:27:35.182Z,49.28
2019-06-15T12:28:35.163Z,53.25
2019-06-15T12:29:35.154Z,49.45
2019-06-15T12:30:46.245Z,53.92
2019-06-15T12:31:36.189Z,54.94
2019-06-15T12:32:35.129Z,61.00
2019-06-15T12:33:35.121Z,53.83
2019-06-15T12:34:35.109Z,59.88
2019-06-15T12:35:35.096Z,62.29
2019-06-15T12:36:35.095Z,57.10
2019-06-15T12:37:35.079Z,57.69
2019-06-15T12:38:35.063Z,57.46
2019-06-15T12:39:41.396Z,58.01
2019-06-15T12:40:36.041Z,57.26
2019-06-15T12:41:35.046Z,54.96
2019-06-15T12:42:35.023Z,59.83
2019-06-15T12:43:35.018Z,54.81
2019-06-15T12:44:35.007Z,59.06
2019-06-15T12:45:35.018Z,56.13
2019-06-15T12:46:34.994Z,53.00
2019-06-15T12:47:34.974Z,53.38
2019-06-15T12:48:34.965Z,51.18
2019-06-15T12:49:34.954Z,53.35
2019-06-15T12:50:34.943Z,53.85
2019-06-15T12:51:34.948Z,51.07
2019-06-15T12:52:34.924Z,51.40
2019-06-15T12:53:34.919Z,49.57
2019-06-15T12:54:34.906Z,50.95
2019-06-15T12:55:34.892Z,50.07
2019-06-15T12:56:34.890Z,51.57
2019-06-15T12:57:34.882Z,53.27
2019-06-15T12:58:34.861Z,56.90
2019-06-15T12:59:34.851Z,60.68
2019-06-15T13:00:34.842Z,53.66
2019-06-15T13:01:34.846Z,49.85
2019-06-15T13:02:34.821Z,52.09
2019-06-15T13:03:34.829Z,51.10
2019-06-15T13:04:34.802Z,53.20
2019-06-15T13:05:34.792Z,53.38
2019-06-15T13:06:34.788Z,54.83
2019-06-15T13:07:34.772Z,53.35
2019-06-15T13:08:34.763Z,53.77
2019-06-15T13:09:34.753Z,55.56
2019-06-15T13:10:34.741Z,58.67
2019-06-15T13:11:34.746Z,59.69
2019-06-15T13:12:34.721Z,60.31
2019-06-15T13:13:34.726Z,61.67
2019-06-15T13:14:34.700Z,61.44
2019-06-15T13:15:34.697Z,60.31
2019-06-15T13:16:39.263Z,62.97
2019-06-15T13:17:35.666Z,60.33
2019-06-15T13:18:34.655Z,58.57
2019-06-15T13:19:35.475Z,60.43
2019-06-15T13:20:34.636Z,56.85
2019-06-15T13:21:34.651Z,60.60
2019-06-15T13:22:34.615Z,57.32
2019-06-15T13:23:34.609Z,59.04
2019-06-15T13:24:34.605Z,59.27
2019-06-15T13:25:34.580Z,59.49
2019-06-15T13:26:34.601Z,58.92
2019-06-15T13:27:34.560Z,59.98
2019-06-15T13:28:34.551Z,60.90
2019-06-15T13:29:34.570Z,61.67